sensor_id;sensor_type;location;lat;lon;timestamp;P1;durP1;ratioP1;P2;durP2;ratioP2
18647;SDS011;9453;50.294;18.644;2022-09-02T04:01:20;5.30;;;2.63;;
18647;SDS011;9453;50.294;18.644;2022-09-02T04:03:49;4.63;;;2.43;;
18647;SDS011;9453;50.294;18.644;2022-09-02T04:06:18;11.97;;;3.63;;
18647;SDS011;9453;50.294;18.644;2022-09-02T04:08:47;7.20;;;2.73;;
18647;SDS011;9453;50.294;18.644;2022-09-02T04:11:16;6.27;;;2.80;;
18647;SDS011;9453;50.294;18.644;2022-09-02T04:13:44;7.07;;;3.10;;
18647;SDS011;9453;50.294;18.644;2022-09-02T04:16:13;6.93;;;2.80;;
18647;SDS011;9453;50.294;18.644;2022-09-02T04:18:44;6.83;;;3.27;;
18647;SDS011;9453;50.294;18.644;2022-09-02T04:21:11;5.83;;;2.40;;
18647;SDS011;9453;50.294;18.644;2022-09-02T04:23:38;7.70;;;2.83;;
18647;SDS011;9453;50.294;18.644;2022-09-02T04:26:06;5.00;;;2.90;;
18647;SDS011;9453;50.294;18.644;2022-09-02T04:28:35;4.63;;;2.23;;
18647;SDS011;9453;50.294;18.644;2022-09-02T04:31:03;8.07;;;3.20;;
18647;SDS011;9453;50.294;18.644;2022-09-02T04:33:31;5.60;;;2.60;;
18647;SDS011;9453;50.294;18.644;2022-09-02T04:36:00;6.97;;;2.30;;
18647;SDS011;9453;50.294;18.644;2022-09-02T04:38:30;7.70;;;2.93;;
18647;SDS011;9453;50.294;18.644;2022-09-02T04:40:56;6.50;;;3.03;;
18647;SDS011;9453;50.294;18.644;2022-09-02T04:43:23;4.73;;;2.27;;
18647;SDS011;9453;50.294;18.644;2022-09-02T04:45:50;6.60;;;2.80;;
18647;SDS011;9453;50.294;18.644;2022-09-02T04:48:17;7.07;;;2.53;;
18647;SDS011;9453;50.294;18.644;2022-09-02T04:50:44;8.20;;;3.00;;
18647;SDS011;9453;50.294;18.644;2022-09-02T04:53:13;6.40;;;2.63;;
18647;SDS011;9453;50.294;18.644;2022-09-02T04:55:41;5.97;;;2.40;;
18647;SDS011;9453;50.294;18.644;2022-09-02T04:58:08;6.70;;;3.20;;
18647;SDS011;9453;50.294;18.644;2022-09-02T05:00:35;5.63;;;2.77;;
18647;SDS011;9453;50.294;18.644;2022-09-02T05:03:03;9.13;;;2.85;;
18647;SDS011;9453;50.294;18.644;2022-09-02T05:05:30;6.73;;;2.97;;
18647;SDS011;9453;50.294;18.644;2022-09-02T05:07:57;8.43;;;4.30;;
18647;SDS011;9453;50.294;18.644;2022-09-02T05:10:26;9.80;;;3.60;;
18647;SDS011;9453;50.294;18.644;2022-09-02T05:12:53;12.53;;;3.37;;
18647;SDS011;9453;50.294;18.644;2022-09-02T05:15:20;10.17;;;3.03;;
18647;SDS011;9453;50.294;18.644;2022-09-02T05:17:47;9.90;;;3.87;;
18647;SDS011;9453;50.294;18.644;2022-09-02T05:20:14;10.00;;;3.20;;
18647;SDS011;9453;50.294;18.644;2022-09-02T05:22:40;9.27;;;3.43;;
18647;SDS011;9453;50.294;18.644;2022-09-02T05:25:08;7.27;;;3.27;;
18647;SDS011;9453;50.294;18.644;2022-09-02T05:27:37;5.37;;;3.30;;
18647;SDS011;9453;50.294;18.644;2022-09-02T05:30:04;8.97;;;2.87;;
18647;SDS011;9453;50.294;18.644;2022-09-02T05:32:32;5.53;;;2.87;;
18647;SDS011;9453;50.294;18.644;2022-09-02T05:34:59;5.00;;;2.33;;
18647;SDS011;9453;50.294;18.644;2022-09-02T05:37:26;4.97;;;2.87;;
18647;SDS011;9453;50.294;18.644;2022-09-02T05:39:53;3.47;;;2.42;;
18647;SDS011;9453;50.294;18.644;2022-09-02T05:42:20;5.83;;;2.93;;
18647;SDS011;9453;50.294;18.644;2022-09-02T05:44:48;8.93;;;3.70;;
18647;SDS011;9453;50.294;18.644;2022-09-02T05:47:15;7.95;;;2.80;;
18647;SDS011;9453;50.294;18.644;2022-09-02T05:49:42;8.27;;;3.35;;
18647;SDS011;9453;50.294;18.644;2022-09-02T05:52:09;5.28;;;2.63;;
18647;SDS011;9453;50.294;18.644;2022-09-02T05:54:38;5.73;;;2.43;;
18647;SDS011;9453;50.294;18.644;2022-09-02T05:57:06;5.28;;;2.40;;
18647;SDS011;9453;50.294;18.644;2022-09-02T05:59:36;4.45;;;2.10;;
18647;SDS011;9453;50.294;18.644;2022-09-02T06:02:07;5.93;;;2.60;;
18647;SDS011;9453;50.294;18.644;2022-09-02T06:04:38;6.18;;;2.30;;
18647;SDS011;9453;50.294;18.644;2022-09-02T06:07:06;5.13;;;2.53;;
18647;SDS011;9453;50.294;18.644;2022-09-02T06:09:33;8.30;;;2.90;;
18647;SDS011;9453;50.294;18.644;2022-09-02T06:12:03;8.18;;;3.15;;
18647;SDS011;9453;50.294;18.644;2022-09-02T06:14:31;11.13;;;3.20;;
18647;SDS011;9453;50.294;18.644;2022-09-02T06:16:58;6.50;;;2.75;;
18647;SDS011;9453;50.294;18.644;2022-09-02T06:19:26;6.60;;;2.70;;
18647;SDS011;9453;50.294;18.644;2022-09-02T06:21:54;5.82;;;2.28;;
18647;SDS011;9453;50.294;18.644;2022-09-02T06:24:22;11.63;;;3.50;;
18647;SDS011;9453;50.294;18.644;2022-09-02T06:26:49;5.13;;;2.45;;
18647;SDS011;9453;50.294;18.644;2022-09-02T06:29:17;6.07;;;2.17;;
18647;SDS011;9453;50.294;18.644;2022-09-02T06:31:45;6.00;;;2.45;;
18647;SDS011;9453;50.294;18.644;2022-09-02T06:34:13;4.00;;;2.03;;
18647;SDS011;9453;50.294;18.644;2022-09-02T06:36:44;4.28;;;2.03;;
18647;SDS011;9453;50.294;18.644;2022-09-02T06:39:13;5.75;;;1.90;;
18647;SDS011;9453;50.294;18.644;2022-09-02T06:41:42;4.75;;;2.15;;
18647;SDS011;9453;50.294;18.644;2022-09-02T06:44:12;4.45;;;1.90;;
18647;SDS011;9453;50.294;18.644;2022-09-02T06:46:41;4.50;;;1.77;;
18647;SDS011;9453;50.294;18.644;2022-09-02T06:49:10;3.53;;;1.65;;
18647;SDS011;9453;50.294;18.644;2022-09-02T06:51:38;4.38;;;1.52;;
18647;SDS011;9453;50.294;18.644;2022-09-02T06:54:08;3.78;;;1.50;;
18647;SDS011;9453;50.294;18.644;2022-09-02T06:56:36;4.03;;;1.60;;
18647;SDS011;9453;50.294;18.644;2022-09-02T06:59:04;7.05;;;2.13;;
18647;SDS011;9453;50.294;18.644;2022-09-02T07:01:32;6.38;;;1.90;;
18647;SDS011;9453;50.294;18.644;2022-09-02T07:04:01;8.32;;;2.42;;
18647;SDS011;9453;50.294;18.644;2022-09-02T07:06:47;9.43;;;2.70;;
18647;SDS011;9453;50.294;18.644;2022-09-02T07:09:19;6.85;;;2.05;;
18647;SDS011;9453;50.294;18.644;2022-09-02T07:11:48;11.20;;;2.50;;
18647;SDS011;9453;50.294;18.644;2022-09-02T07:14:16;3.75;;;1.90;;
18647;SDS011;9453;50.294;18.644;2022-09-02T07:16:47;6.45;;;2.28;;
18647;SDS011;9453;50.294;18.644;2022-09-02T07:19:15;9.25;;;2.17;;
18647;SDS011;9453;50.294;18.644;2022-09-02T07:21:44;4.18;;;1.83;;
18647;SDS011;9453;50.294;18.644;2022-09-02T07:24:12;9.60;;;2.60;;
18647;SDS011;9453;50.294;18.644;2022-09-02T07:26:41;7.35;;;1.70;;
18647;SDS011;9453;50.294;18.644;2022-09-02T07:29:09;17.85;;;3.20;;
18647;SDS011;9453;50.294;18.644;2022-09-02T07:31:37;6.30;;;2.55;;
18647;SDS011;9453;50.294;18.644;2022-09-02T07:34:06;7.47;;;2.40;;
18647;SDS011;9453;50.294;18.644;2022-09-02T07:36:34;7.32;;;2.47;;
18647;SDS011;9453;50.294;18.644;2022-09-02T07:39:01;12.73;;;2.42;;
18647;SDS011;9453;50.294;18.644;2022-09-02T07:41:30;9.90;;;2.08;;
18647;SDS011;9453;50.294;18.644;2022-09-02T07:43:58;7.20;;;2.05;;
18647;SDS011;9453;50.294;18.644;2022-09-02T07:46:25;9.30;;;2.88;;
18647;SDS011;9453;50.294;18.644;2022-09-02T07:48:53;20.08;;;2.72;;
18647;SDS011;9453;50.294;18.644;2022-09-02T07:51:21;6.60;;;2.78;;
18647;SDS011;9453;50.294;18.644;2022-09-02T07:53:48;12.90;;;2.85;;
18647;SDS011;9453;50.294;18.644;2022-09-02T07:56:15;5.93;;;2.20;;
18647;SDS011;9453;50.294;18.644;2022-09-02T07:58:43;8.68;;;2.25;;
18647;SDS011;9453;50.294;18.644;2022-09-02T08:01:12;7.28;;;2.83;;
18647;SDS011;9453;50.294;18.644;2022-09-02T08:03:40;5.93;;;1.98;;
18647;SDS011;9453;50.294;18.644;2022-09-02T08:06:09;3.92;;;1.70;;
18647;SDS011;9453;50.294;18.644;2022-09-02T08:08:36;3.13;;;1.55;;
18647;SDS011;9453;50.294;18.644;2022-09-02T08:11:03;2.60;;;1.30;;
18647;SDS011;9453;50.294;18.644;2022-09-02T08:13:31;2.20;;;1.05;;
18647;SDS011;9453;50.294;18.644;2022-09-02T08:15:58;4.97;;;1.65;;
18647;SDS011;9453;50.294;18.644;2022-09-02T08:18:28;4.43;;;1.83;;
18647;SDS011;9453;50.294;18.644;2022-09-02T08:20:56;1.42;;;0.93;;
18647;SDS011;9453;50.294;18.644;2022-09-02T08:23:23;3.63;;;1.40;;
18647;SDS011;9453;50.294;18.644;2022-09-02T08:25:50;5.65;;;1.60;;
18647;SDS011;9453;50.294;18.644;2022-09-02T08:28:17;5.13;;;1.40;;
18647;SDS011;9453;50.294;18.644;2022-09-02T08:30:44;2.30;;;0.90;;
18647;SDS011;9453;50.294;18.644;2022-09-02T08:33:11;6.05;;;1.02;;
18647;SDS011;9453;50.294;18.644;2022-09-02T08:35:40;1.27;;;0.70;;
18647;SDS011;9453;50.294;18.644;2022-09-02T08:38:06;1.83;;;0.65;;
18647;SDS011;9453;50.294;18.644;2022-09-02T08:40:34;4.10;;;0.75;;
18647;SDS011;9453;50.294;18.644;2022-09-02T08:43:03;3.47;;;1.02;;
18647;SDS011;9453;50.294;18.644;2022-09-02T08:45:36;1.88;;;0.80;;
18647;SDS011;9453;50.294;18.644;2022-09-02T08:48:05;5.22;;;1.00;;
18647;SDS011;9453;50.294;18.644;2022-09-02T08:50:36;2.25;;;0.88;;
18647;SDS011;9453;50.294;18.644;2022-09-02T08:53:09;2.03;;;1.02;;
18647;SDS011;9453;50.294;18.644;2022-09-02T08:55:42;5.05;;;0.95;;
18647;SDS011;9453;50.294;18.644;2022-09-02T08:58:12;3.42;;;1.10;;
18647;SDS011;9453;50.294;18.644;2022-09-02T09:00:44;2.45;;;0.90;;
18647;SDS011;9453;50.294;18.644;2022-09-02T09:03:19;3.08;;;0.90;;
18647;SDS011;9453;50.294;18.644;2022-09-02T09:05:54;9.77;;;1.10;;
18647;SDS011;9453;50.294;18.644;2022-09-02T09:08:31;7.35;;;1.83;;
18647;SDS011;9453;50.294;18.644;2022-09-02T09:11:09;5.53;;;1.15;;
18647;SDS011;9453;50.294;18.644;2022-09-02T09:16:30;3.50;;;1.90;;
18647;SDS011;9453;50.294;18.644;2022-09-02T09:19:06;3.78;;;1.17;;
18647;SDS011;9453;50.294;18.644;2022-09-02T09:21:38;3.70;;;1.13;;
18647;SDS011;9453;50.294;18.644;2022-09-02T09:24:07;3.55;;;0.90;;
18647;SDS011;9453;50.294;18.644;2022-09-02T09:26:42;5.45;;;1.23;;
18647;SDS011;9453;50.294;18.644;2022-09-02T09:29:11;5.22;;;1.20;;
18647;SDS011;9453;50.294;18.644;2022-09-02T09:31:38;1.38;;;0.80;;
18647;SDS011;9453;50.294;18.644;2022-09-02T09:34:07;2.17;;;1.00;;
18647;SDS011;9453;50.294;18.644;2022-09-02T09:36:46;7.78;;;1.20;;
18647;SDS011;9453;50.294;18.644;2022-09-02T09:39:16;6.97;;;1.25;;
18647;SDS011;9453;50.294;18.644;2022-09-02T09:41:44;6.97;;;1.10;;
18647;SDS011;9453;50.294;18.644;2022-09-02T09:44:22;3.28;;;0.98;;
18647;SDS011;9453;50.294;18.644;2022-09-02T09:47:03;3.17;;;0.80;;
18647;SDS011;9453;50.294;18.644;2022-09-02T09:49:32;3.95;;;1.02;;
18647;SDS011;9453;50.294;18.644;2022-09-02T09:52:00;2.95;;;0.70;;
18647;SDS011;9453;50.294;18.644;2022-09-02T09:54:28;4.10;;;0.80;;
18647;SDS011;9453;50.294;18.644;2022-09-02T09:56:55;5.00;;;0.82;;
18647;SDS011;9453;50.294;18.644;2022-09-02T09:59:38;3.85;;;1.08;;
18647;SDS011;9453;50.294;18.644;2022-09-02T10:02:11;11.55;;;2.63;;
18647;SDS011;9453;50.294;18.644;2022-09-02T10:04:45;6.50;;;2.08;;
18647;SDS011;9453;50.294;18.644;2022-09-02T10:07:13;3.95;;;1.30;;
18647;SDS011;9453;50.294;18.644;2022-09-02T10:09:42;8.32;;;1.48;;
18647;SDS011;9453;50.294;18.644;2022-09-02T10:12:10;6.82;;;1.35;;
18647;SDS011;9453;50.294;18.644;2022-09-02T10:14:38;1.48;;;0.68;;
18647;SDS011;9453;50.294;18.644;2022-09-02T10:17:11;2.33;;;0.70;;
18647;SDS011;9453;50.294;18.644;2022-09-02T10:19:53;3.00;;;0.90;;
18647;SDS011;9453;50.294;18.644;2022-09-02T10:25:23;3.55;;;0.70;;
18647;SDS011;9453;50.294;18.644;2022-09-02T10:27:57;1.48;;;0.70;;
18647;SDS011;9453;50.294;18.644;2022-09-02T10:30:31;0.93;;;0.50;;
18647;SDS011;9453;50.294;18.644;2022-09-02T10:33:13;1.15;;;0.52;;
18647;SDS011;9453;50.294;18.644;2022-09-02T10:35:47;4.75;;;0.90;;
18647;SDS011;9453;50.294;18.644;2022-09-02T10:38:28;1.60;;;0.82;;
18647;SDS011;9453;50.294;18.644;2022-09-02T10:41:17;2.17;;;0.73;;
18647;SDS011;9453;50.294;18.644;2022-09-02T10:44:07;3.78;;;1.20;;
18647;SDS011;9453;50.294;18.644;2022-09-02T10:46:57;10.32;;;1.20;;
18647;SDS011;9453;50.294;18.644;2022-09-02T10:49:30;12.15;;;1.48;;
18647;SDS011;9453;50.294;18.644;2022-09-02T10:52:24;3.28;;;0.75;;
18647;SDS011;9453;50.294;18.644;2022-09-02T10:55:05;5.93;;;0.93;;
18647;SDS011;9453;50.294;18.644;2022-09-02T10:57:43;7.00;;;1.10;;
18647;SDS011;9453;50.294;18.644;2022-09-02T11:00:13;6.45;;;1.10;;
18647;SDS011;9453;50.294;18.644;2022-09-02T11:02:44;6.32;;;1.20;;
18647;SDS011;9453;50.294;18.644;2022-09-02T11:05:17;4.30;;;1.10;;
18647;SDS011;9453;50.294;18.644;2022-09-02T11:07:49;5.30;;;1.20;;
18647;SDS011;9453;50.294;18.644;2022-09-02T11:10:22;9.82;;;1.48;;
18647;SDS011;9453;50.294;18.644;2022-09-02T11:12:53;9.05;;;1.20;;
18647;SDS011;9453;50.294;18.644;2022-09-02T11:15:30;4.07;;;0.80;;
18647;SDS011;9453;50.294;18.644;2022-09-02T11:18:08;2.22;;;1.10;;
18647;SDS011;9453;50.294;18.644;2022-09-02T11:20:45;2.45;;;0.77;;
18647;SDS011;9453;50.294;18.644;2022-09-02T11:23:16;9.23;;;0.68;;
18647;SDS011;9453;50.294;18.644;2022-09-02T11:25:51;4.93;;;1.02;;
18647;SDS011;9453;50.294;18.644;2022-09-02T11:28:28;6.18;;;1.00;;
18647;SDS011;9453;50.294;18.644;2022-09-02T11:31:00;7.88;;;0.90;;
18647;SDS011;9453;50.294;18.644;2022-09-02T11:33:35;8.55;;;1.10;;
18647;SDS011;9453;50.294;18.644;2022-09-02T11:36:10;2.42;;;0.65;;
18647;SDS011;9453;50.294;18.644;2022-09-02T11:38:38;2.28;;;0.80;;
18647;SDS011;9453;50.294;18.644;2022-09-02T11:44:10;2.05;;;0.80;;
18647;SDS011;9453;50.294;18.644;2022-09-02T11:47:01;3.42;;;0.90;;
18647;SDS011;9453;50.294;18.644;2022-09-02T11:49:42;1.08;;;0.70;;
18647;SDS011;9453;50.294;18.644;2022-09-02T11:52:23;1.27;;;0.80;;
18647;SDS011;9453;50.294;18.644;2022-09-02T11:55:03;1.15;;;0.50;;
18647;SDS011;9453;50.294;18.644;2022-09-02T11:57:35;1.50;;;0.65;;
18647;SDS011;9453;50.294;18.644;2022-09-02T12:00:06;3.25;;;0.57;;
18647;SDS011;9453;50.294;18.644;2022-09-02T12:02:39;2.17;;;0.88;;
18647;SDS011;9453;50.294;18.644;2022-09-02T12:11:34;2.60;;;0.90;;
18647;SDS011;9453;50.294;18.644;2022-09-02T12:27:06;1.38;;;0.55;;
18647;SDS011;9453;50.294;18.644;2022-09-02T12:29:31;2.42;;;0.80;;
18647;SDS011;9453;50.294;18.644;2022-09-02T12:31:59;4.25;;;0.70;;
18647;SDS011;9453;50.294;18.644;2022-09-02T12:37:52;7.57;;;1.00;;
18647;SDS011;9453;50.294;18.644;2022-09-02T12:40:35;5.50;;;1.20;;
18647;SDS011;9453;50.294;18.644;2022-09-02T12:43:13;2.35;;;0.85;;
18647;SDS011;9453;50.294;18.644;2022-09-02T12:45:45;3.08;;;0.90;;
18647;SDS011;9453;50.294;18.644;2022-09-02T12:48:14;7.95;;;1.13;;
18647;SDS011;9453;50.294;18.644;2022-09-02T12:50:51;3.42;;;1.13;;
18647;SDS011;9453;50.294;18.644;2022-09-02T12:53:25;3.17;;;0.90;;
18647;SDS011;9453;50.294;18.644;2022-09-02T12:55:57;4.72;;;0.93;;
18647;SDS011;9453;50.294;18.644;2022-09-02T12:58:28;2.58;;;1.00;;
18647;SDS011;9453;50.294;18.644;2022-09-02T13:01:01;2.83;;;0.80;;
18647;SDS011;9453;50.294;18.644;2022-09-02T13:03:50;2.63;;;0.98;;
18647;SDS011;9453;50.294;18.644;2022-09-02T13:06:33;3.20;;;1.05;;
18647;SDS011;9453;50.294;18.644;2022-09-02T13:09:23;4.22;;;1.38;;
18647;SDS011;9453;50.294;18.644;2022-09-02T13:12:27;3.38;;;1.20;;
18647;SDS011;9453;50.294;18.644;2022-09-02T13:15:29;1.52;;;0.85;;
18647;SDS011;9453;50.294;18.644;2022-09-02T13:21:19;2.00;;;0.90;;
18647;SDS011;9453;50.294;18.644;2022-09-02T13:27:34;4.70;;;0.70;;
18647;SDS011;9453;50.294;18.644;2022-09-02T13:30:47;3.10;;;0.68;;
18647;SDS011;9453;50.294;18.644;2022-09-02T13:33:27;3.67;;;0.70;;
18647;SDS011;9453;50.294;18.644;2022-09-02T13:35:54;3.00;;;0.90;;
18647;SDS011;9453;50.294;18.644;2022-09-02T13:38:24;0.80;;;0.60;;
18647;SDS011;9453;50.294;18.644;2022-09-02T13:40:52;3.40;;;0.52;;
18647;SDS011;9453;50.294;18.644;2022-09-02T13:43:21;1.67;;;0.88;;
18647;SDS011;9453;50.294;18.644;2022-09-02T13:45:51;1.67;;;0.85;;
18647;SDS011;9453;50.294;18.644;2022-09-02T13:48:20;4.38;;;0.82;;
18647;SDS011;9453;50.294;18.644;2022-09-02T13:50:51;2.05;;;0.88;;
18647;SDS011;9453;50.294;18.644;2022-09-02T13:53:22;2.08;;;0.85;;
18647;SDS011;9453;50.294;18.644;2022-09-02T13:55:53;1.33;;;0.80;;
18647;SDS011;9453;50.294;18.644;2022-09-02T13:58:24;2.92;;;0.95;;
18647;SDS011;9453;50.294;18.644;2022-09-02T14:03:45;2.50;;;1.17;;
18647;SDS011;9453;50.294;18.644;2022-09-02T14:06:15;1.83;;;0.80;;
18647;SDS011;9453;50.294;18.644;2022-09-02T14:08:44;1.45;;;0.70;;
18647;SDS011;9453;50.294;18.644;2022-09-02T14:11:13;1.33;;;0.70;;
18647;SDS011;9453;50.294;18.644;2022-09-02T14:13:43;0.88;;;0.75;;
18647;SDS011;9453;50.294;18.644;2022-09-02T14:16:23;1.67;;;0.70;;
18647;SDS011;9453;50.294;18.644;2022-09-02T14:19:04;2.40;;;0.70;;
18647;SDS011;9453;50.294;18.644;2022-09-02T14:21:33;4.50;;;0.88;;
18647;SDS011;9453;50.294;18.644;2022-09-02T14:24:01;2.03;;;0.85;;
18647;SDS011;9453;50.294;18.644;2022-09-02T14:26:30;3.42;;;0.68;;
18647;SDS011;9453;50.294;18.644;2022-09-02T14:29:01;2.20;;;0.82;;
18647;SDS011;9453;50.294;18.644;2022-09-02T14:31:31;4.53;;;0.90;;
18647;SDS011;9453;50.294;18.644;2022-09-02T14:33:59;7.97;;;1.08;;
18647;SDS011;9453;50.294;18.644;2022-09-02T14:36:33;1.88;;;1.00;;
18647;SDS011;9453;50.294;18.644;2022-09-02T14:39:09;2.67;;;1.17;;
18647;SDS011;9453;50.294;18.644;2022-09-02T14:41:41;7.55;;;2.22;;
18647;SDS011;9453;50.294;18.644;2022-09-02T14:44:14;3.28;;;1.20;;
18647;SDS011;9453;50.294;18.644;2022-09-02T14:46:46;3.55;;;1.25;;
18647;SDS011;9453;50.294;18.644;2022-09-02T14:49:18;7.80;;;1.27;;
18647;SDS011;9453;50.294;18.644;2022-09-02T14:51:48;3.20;;;1.00;;
18647;SDS011;9453;50.294;18.644;2022-09-02T14:54:33;4.00;;;1.30;;
18647;SDS011;9453;50.294;18.644;2022-09-02T14:57:02;1.98;;;1.17;;
18647;SDS011;9453;50.294;18.644;2022-09-02T14:59:31;3.22;;;1.30;;
18647;SDS011;9453;50.294;18.644;2022-09-02T15:01:58;3.58;;;1.42;;
18647;SDS011;9453;50.294;18.644;2022-09-02T15:04:25;4.35;;;1.10;;
18647;SDS011;9453;50.294;18.644;2022-09-02T15:06:52;2.05;;;0.82;;
18647;SDS011;9453;50.294;18.644;2022-09-02T15:09:19;4.90;;;1.30;;
18647;SDS011;9453;50.294;18.644;2022-09-02T15:11:48;2.08;;;1.05;;
18647;SDS011;9453;50.294;18.644;2022-09-02T15:14:18;3.42;;;0.80;;
18647;SDS011;9453;50.294;18.644;2022-09-02T15:16:46;3.45;;;0.85;;
18647;SDS011;9453;50.294;18.644;2022-09-02T15:19:13;1.20;;;0.50;;
18647;SDS011;9453;50.294;18.644;2022-09-02T15:21:40;1.90;;;0.80;;
18647;SDS011;9453;50.294;18.644;2022-09-02T15:24:07;0.95;;;0.60;;
18647;SDS011;9453;50.294;18.644;2022-09-02T15:26:34;1.55;;;0.90;;
18647;SDS011;9453;50.294;18.644;2022-09-02T15:29:01;4.95;;;0.88;;
18647;SDS011;9453;50.294;18.644;2022-09-02T15:31:28;1.83;;;0.80;;
18647;SDS011;9453;50.294;18.644;2022-09-02T15:33:57;7.07;;;1.20;;
18647;SDS011;9453;50.294;18.644;2022-09-02T15:36:24;2.65;;;0.85;;
18647;SDS011;9453;50.294;18.644;2022-09-02T15:38:51;1.85;;;0.90;;
18647;SDS011;9453;50.294;18.644;2022-09-02T15:41:19;1.95;;;0.77;;
18647;SDS011;9453;50.294;18.644;2022-09-02T15:43:48;2.90;;;0.80;;
18647;SDS011;9453;50.294;18.644;2022-09-02T15:46:16;1.75;;;0.80;;
18647;SDS011;9453;50.294;18.644;2022-09-02T15:48:47;1.38;;;0.80;;
18647;SDS011;9453;50.294;18.644;2022-09-02T15:51:16;4.10;;;1.30;;
18647;SDS011;9453;50.294;18.644;2022-09-02T15:53:45;4.43;;;1.55;;
18647;SDS011;9453;50.294;18.644;2022-09-02T15:56:16;4.00;;;1.48;;
18647;SDS011;9453;50.294;18.644;2022-09-02T15:58:44;5.55;;;1.40;;
18647;SDS011;9453;50.294;18.644;2022-09-02T16:01:11;2.55;;;1.15;;
18647;SDS011;9453;50.294;18.644;2022-09-02T16:03:38;3.42;;;0.80;;
18647;SDS011;9453;50.294;18.644;2022-09-02T16:06:05;8.48;;;1.75;;
18647;SDS011;9453;50.294;18.644;2022-09-02T16:08:35;1.60;;;0.80;;
18647;SDS011;9453;50.294;18.644;2022-09-02T16:11:03;5.03;;;0.80;;
18647;SDS011;9453;50.294;18.644;2022-09-02T16:13:31;3.53;;;0.90;;
18647;SDS011;9453;50.294;18.644;2022-09-02T16:16:00;2.50;;;0.88;;
18647;SDS011;9453;50.294;18.644;2022-09-02T16:18:28;5.68;;;0.88;;
18647;SDS011;9453;50.294;18.644;2022-09-02T16:20:55;2.13;;;0.85;;
18647;SDS011;9453;50.294;18.644;2022-09-02T16:23:22;2.78;;;0.73;;
18647;SDS011;9453;50.294;18.644;2022-09-02T16:28:46;5.07;;;1.33;;
18647;SDS011;9453;50.294;18.644;2022-09-02T16:31:14;4.22;;;1.25;;
18647;SDS011;9453;50.294;18.644;2022-09-02T16:33:43;1.45;;;1.00;;
18647;SDS011;9453;50.294;18.644;2022-09-02T16:36:10;5.13;;;1.08;;
18647;SDS011;9453;50.294;18.644;2022-09-02T16:38:37;3.75;;;0.90;;
18647;SDS011;9453;50.294;18.644;2022-09-02T16:41:04;4.75;;;1.30;;
18647;SDS011;9453;50.294;18.644;2022-09-02T16:43:31;1.42;;;0.80;;
18647;SDS011;9453;50.294;18.644;2022-09-02T16:45:59;2.42;;;1.10;;
18647;SDS011;9453;50.294;18.644;2022-09-02T16:48:29;2.45;;;1.27;;
18647;SDS011;9453;50.294;18.644;2022-09-02T16:51:00;5.50;;;1.23;;
18647;SDS011;9453;50.294;18.644;2022-09-02T16:53:28;1.85;;;0.95;;
18647;SDS011;9453;50.294;18.644;2022-09-02T16:55:55;2.88;;;1.00;;
18647;SDS011;9453;50.294;18.644;2022-09-02T16:58:22;1.73;;;1.10;;
18647;SDS011;9453;50.294;18.644;2022-09-02T17:00:50;3.72;;;1.00;;
18647;SDS011;9453;50.294;18.644;2022-09-02T17:03:18;1.65;;;0.90;;
18647;SDS011;9453;50.294;18.644;2022-09-02T17:05:45;4.22;;;1.30;;
18647;SDS011;9453;50.294;18.644;2022-09-02T17:08:13;3.15;;;1.20;;
18647;SDS011;9453;50.294;18.644;2022-09-02T17:10:40;3.90;;;1.10;;
18647;SDS011;9453;50.294;18.644;2022-09-02T17:13:08;1.63;;;0.75;;
18647;SDS011;9453;50.294;18.644;2022-09-02T17:15:35;2.08;;;1.00;;
18647;SDS011;9453;50.294;18.644;2022-09-02T17:18:02;4.10;;;1.08;;
18647;SDS011;9453;50.294;18.644;2022-09-02T17:20:30;1.58;;;1.00;;
18647;SDS011;9453;50.294;18.644;2022-09-02T17:22:57;1.55;;;0.90;;
18647;SDS011;9453;50.294;18.644;2022-09-02T17:25:24;1.70;;;0.90;;
18647;SDS011;9453;50.294;18.644;2022-09-02T17:27:51;1.65;;;0.90;;
18647;SDS011;9453;50.294;18.644;2022-09-02T17:30:18;3.80;;;1.02;;
18647;SDS011;9453;50.294;18.644;2022-09-02T17:32:47;2.00;;;1.25;;
18647;SDS011;9453;50.294;18.644;2022-09-02T17:35:15;4.85;;;1.23;;
18647;SDS011;9453;50.294;18.644;2022-09-02T17:37:44;1.75;;;1.10;;
18647;SDS011;9453;50.294;18.644;2022-09-02T17:40:12;2.50;;;1.02;;
18647;SDS011;9453;50.294;18.644;2022-09-02T17:42:52;2.67;;;1.27;;
18647;SDS011;9453;50.294;18.644;2022-09-02T17:45:20;3.60;;;1.23;;
18647;SDS011;9453;50.294;18.644;2022-09-02T17:47:47;6.88;;;1.30;;
18647;SDS011;9453;50.294;18.644;2022-09-02T17:50:13;3.97;;;1.38;;
18647;SDS011;9453;50.294;18.644;2022-09-02T17:52:40;5.70;;;1.48;;
18647;SDS011;9453;50.294;18.644;2022-09-02T17:55:10;5.63;;;1.77;;
18647;SDS011;9453;50.294;18.644;2022-09-02T17:57:39;6.22;;;2.00;;
18647;SDS011;9453;50.294;18.644;2022-09-02T18:00:15;3.20;;;1.48;;
18647;SDS011;9453;50.294;18.644;2022-09-02T18:06:04;2.58;;;1.60;;
18647;SDS011;9453;50.294;18.644;2022-09-02T18:08:38;4.53;;;2.00;;
18647;SDS011;9453;50.294;18.644;2022-09-02T18:11:11;7.57;;;2.00;;
18647;SDS011;9453;50.294;18.644;2022-09-02T18:13:41;5.78;;;1.88;;
18647;SDS011;9453;50.294;18.644;2022-09-02T18:16:18;7.82;;;1.90;;
18647;SDS011;9453;50.294;18.644;2022-09-02T18:18:54;12.13;;;3.78;;
18647;SDS011;9453;50.294;18.644;2022-09-02T18:21:29;6.80;;;2.58;;
18647;SDS011;9453;50.294;18.644;2022-09-02T18:24:05;6.95;;;2.25;;
18647;SDS011;9453;50.294;18.644;2022-09-02T18:26:44;5.20;;;1.88;;
18647;SDS011;9453;50.294;18.644;2022-09-02T18:29:23;8.15;;;2.65;;
18647;SDS011;9453;50.294;18.644;2022-09-02T18:32:04;4.63;;;1.90;;
18647;SDS011;9453;50.294;18.644;2022-09-02T18:34:38;4.20;;;1.90;;
18647;SDS011;9453;50.294;18.644;2022-09-02T18:37:18;4.43;;;2.15;;
18647;SDS011;9453;50.294;18.644;2022-09-02T18:40:01;4.43;;;1.70;;
18647;SDS011;9453;50.294;18.644;2022-09-02T18:42:40;6.07;;;2.03;;
18647;SDS011;9453;50.294;18.644;2022-09-02T18:45:14;7.05;;;2.22;;
18647;SDS011;9453;50.294;18.644;2022-09-02T18:47:46;7.32;;;2.22;;
18647;SDS011;9453;50.294;18.644;2022-09-02T18:50:20;4.95;;;2.10;;
18647;SDS011;9453;50.294;18.644;2022-09-02T18:52:49;6.93;;;2.08;;
18647;SDS011;9453;50.294;18.644;2022-09-02T18:55:30;4.82;;;2.05;;
18647;SDS011;9453;50.294;18.644;2022-09-02T18:58:04;4.35;;;1.77;;
18647;SDS011;9453;50.294;18.644;2022-09-02T19:00:35;5.35;;;2.10;;
18647;SDS011;9453;50.294;18.644;2022-09-02T19:03:09;6.07;;;2.13;;
18647;SDS011;9453;50.294;18.644;2022-09-02T19:05:36;4.25;;;2.20;;
18647;SDS011;9453;50.294;18.644;2022-09-02T19:08:03;7.60;;;2.47;;
18647;SDS011;9453;50.294;18.644;2022-09-02T19:10:49;7.43;;;2.80;;
18647;SDS011;9453;50.294;18.644;2022-09-02T19:13:24;6.35;;;2.33;;
18647;SDS011;9453;50.294;18.644;2022-09-02T19:15:53;7.10;;;2.10;;
18647;SDS011;9453;50.294;18.644;2022-09-02T19:18:20;4.45;;;1.75;;
18647;SDS011;9453;50.294;18.644;2022-09-02T19:20:49;5.18;;;2.00;;
18647;SDS011;9453;50.294;18.644;2022-09-02T19:23:18;4.47;;;1.88;;
18647;SDS011;9453;50.294;18.644;2022-09-02T19:25:46;6.15;;;2.45;;
18647;SDS011;9453;50.294;18.644;2022-09-02T19:28:13;6.43;;;1.70;;
18647;SDS011;9453;50.294;18.644;2022-09-02T19:30:43;4.35;;;2.13;;
18647;SDS011;9453;50.294;18.644;2022-09-02T19:33:10;4.82;;;2.08;;
18647;SDS011;9453;50.294;18.644;2022-09-02T19:35:40;2.50;;;1.50;;
18647;SDS011;9453;50.294;18.644;2022-09-02T19:38:10;5.68;;;2.28;;
18647;SDS011;9453;50.294;18.644;2022-09-02T19:40:41;5.13;;;2.50;;
18647;SDS011;9453;50.294;18.644;2022-09-02T19:43:11;8.32;;;2.50;;
18647;SDS011;9453;50.294;18.644;2022-09-02T19:45:40;2.70;;;1.75;;
18647;SDS011;9453;50.294;18.644;2022-09-02T19:48:08;5.25;;;1.83;;
18647;SDS011;9453;50.294;18.644;2022-09-02T19:50:36;5.63;;;2.22;;
18647;SDS011;9453;50.294;18.644;2022-09-02T19:53:06;7.00;;;2.40;;
18647;SDS011;9453;50.294;18.644;2022-09-02T19:55:34;8.32;;;2.13;;
18647;SDS011;9453;50.294;18.644;2022-09-02T19:58:02;4.28;;;2.00;;